createdAt,value
2019-03-25T00:00:09.645Z,12.47
2019-03-25T00:02:38.451Z,8.80
2019-03-25T00:05:07.539Z,25.63
2019-03-25T00:07:36.359Z,16.93
2019-03-25T00:10:06.190Z,10.23
2019-03-25T00:12:34.938Z,9.53
2019-03-25T00:15:05.994Z,12.10
2019-03-25T00:17:34.785Z,8.47
2019-03-25T00:20:04.250Z,14.03
2019-03-25T00:22:33.013Z,11.10
2019-03-25T00:25:01.817Z,15.63
2019-03-25T00:27:30.705Z,10.93
2019-03-25T00:29:59.459Z,15.67
2019-03-25T00:32:28.350Z,15.77
2019-03-25T00:34:57.062Z,6.30
2019-03-25T00:37:26.199Z,14.43
2019-03-25T00:39:55.251Z,19.27
2019-03-25T00:42:24.013Z,16.53
2019-03-25T00:44:52.782Z,7.83
2019-03-25T00:47:21.509Z,10.63
2019-03-25T00:49:50.258Z,10.63
2019-03-25T00:52:19.123Z,16.67
2019-03-25T00:54:50.268Z,6.63
2019-03-25T00:57:18.775Z,11.30
2019-03-25T00:59:48.973Z,15.20
2019-03-25T01:02:17.963Z,11.60
2019-03-25T01:04:46.687Z,10.53
2019-03-25T01:07:16.323Z,7.27
2019-03-25T01:09:45.160Z,11.73
2019-03-25T01:12:14.383Z,9.20
2019-03-25T01:14:43.182Z,20.87
2019-03-25T01:17:11.959Z,18.70
2019-03-25T01:19:40.745Z,16.40
2019-03-25T01:22:10.180Z,16.63
2019-03-25T01:24:38.922Z,11.33
2019-03-25T01:27:07.643Z,10.27
2019-03-25T01:29:36.464Z,16.07
2019-03-25T01:32:05.188Z,16.20
2019-03-25T01:34:33.947Z,15.07
2019-03-25T01:37:02.765Z,13.67
2019-03-25T01:39:31.635Z,18.27
2019-03-25T01:42:00.386Z,14.27
2019-03-25T01:44:29.094Z,12.67
2019-03-25T01:46:57.890Z,9.50
2019-03-25T01:49:26.657Z,15.80
2019-03-25T01:51:55.440Z,18.10
2019-03-25T01:54:24.876Z,22.83
2019-03-25T01:56:53.659Z,11.20
2019-03-25T01:59:22.535Z,17.83
2019-03-25T02:01:51.257Z,15.53
2019-03-25T02:04:20.078Z,8.03
2019-03-25T02:06:48.965Z,15.30
2019-03-25T02:09:17.717Z,16.83
2019-03-25T02:11:46.485Z,19.97
2019-03-25T02:14:15.208Z,23.80
2019-03-25T02:16:44.600Z,15.53
2019-03-25T02:19:13.962Z,10.37
2019-03-25T02:21:42.770Z,24.57
2019-03-25T02:24:12.937Z,20.10
2019-03-25T02:26:41.715Z,21.17
2019-03-25T02:29:10.594Z,11.33
2019-03-25T02:31:39.280Z,16.23
2019-03-25T02:34:08.126Z,11.43
2019-03-25T02:36:37.455Z,10.47
2019-03-25T02:39:06.876Z,7.83
2019-03-25T02:41:35.655Z,12.47
2019-03-25T02:44:04.474Z,13.60
2019-03-25T02:46:33.196Z,16.23
2019-03-25T02:49:02.002Z,16.17
2019-03-25T02:51:30.819Z,13.77
2019-03-25T02:53:59.652Z,20.40
2019-03-25T02:56:28.440Z,21.67
2019-03-25T02:58:57.181Z,9.63
2019-03-25T03:01:25.999Z,13.93
2019-03-25T03:03:54.754Z,19.57
2019-03-25T03:06:23.507Z,15.10
2019-03-25T03:08:52.851Z,18.33
2019-03-25T03:11:21.650Z,20.30
2019-03-25T03:13:50.429Z,15.27
2019-03-25T03:16:19.769Z,17.07
2019-03-25T03:18:48.674Z,16.53
2019-03-25T03:21:17.416Z,19.23
2019-03-25T03:23:46.178Z,9.80
2019-03-25T03:26:14.884Z,24.30
2019-03-25T03:28:43.669Z,11.33
2019-03-25T03:31:12.754Z,18.03
2019-03-25T03:33:41.600Z,12.57
2019-03-25T03:36:10.802Z,16.20
2019-03-25T03:38:39.742Z,15.03
2019-03-25T03:41:08.824Z,21.90
2019-03-25T03:43:37.725Z,19.10
2019-03-25T03:46:06.645Z,19.13
2019-03-25T03:48:35.668Z,14.73
2019-03-25T03:51:05.161Z,7.43
2019-03-25T03:53:34.456Z,23.10
2019-03-25T03:56:12.680Z,11.27
2019-03-25T03:58:35.093Z,17.00
2019-03-25T04:01:04.256Z,8.00
2019-03-25T04:03:33.265Z,9.00
2019-03-25T04:06:02.201Z,6.93
2019-03-25T04:08:31.106Z,7.90
2019-03-25T04:10:59.889Z,6.40
2019-03-25T04:13:29.070Z,8.03
2019-03-25T04:16:01.189Z,5.97
2019-03-25T04:18:28.620Z,9.00
2019-03-25T04:20:57.488Z,6.00
2019-03-25T04:23:26.355Z,7.30
2019-03-25T04:25:55.412Z,7.23
2019-03-25T04:28:26.249Z,11.00
2019-03-25T04:30:55.152Z,6.60
2019-03-25T04:33:24.028Z,7.17
2019-03-25T04:35:52.878Z,4.73
2019-03-25T04:38:21.811Z,5.30
2019-03-25T04:40:50.540Z,6.07
2019-03-25T04:43:19.394Z,6.40
2019-03-25T04:45:48.264Z,5.07
2019-03-25T04:48:17.150Z,5.37
2019-03-25T04:50:45.923Z,5.03
2019-03-25T04:53:14.779Z,4.27
2019-03-25T04:55:43.662Z,4.37
2019-03-25T04:58:12.455Z,4.47
2019-03-25T05:00:41.297Z,5.10
2019-03-25T05:03:10.201Z,6.90
2019-03-25T05:05:38.962Z,4.23
2019-03-25T05:08:07.811Z,3.70
2019-03-25T05:10:36.564Z,3.50
2019-03-25T05:13:05.375Z,5.37
2019-03-25T05:15:34.102Z,3.20
2019-03-25T05:18:03.533Z,2.87
2019-03-25T05:20:32.328Z,3.40
2019-03-25T05:23:01.117Z,5.10
2019-03-25T05:25:29.885Z,3.87
2019-03-25T05:27:58.749Z,3.50
2019-03-25T05:30:27.690Z,3.60
2019-03-25T05:32:56.542Z,7.00
2019-03-25T05:35:26.876Z,3.37
2019-03-25T05:37:55.665Z,4.03
2019-03-25T05:40:24.538Z,4.50
2019-03-25T05:42:53.281Z,3.57
2019-03-25T05:45:22.021Z,3.67
2019-03-25T05:47:50.822Z,5.93
2019-03-25T05:50:19.583Z,4.23
2019-03-25T05:52:48.439Z,2.97
2019-03-25T05:55:17.156Z,3.53
2019-03-25T05:57:45.951Z,4.77
2019-03-25T06:00:16.276Z,3.00
2019-03-25T06:02:45.083Z,8.33
2019-03-25T06:05:14.066Z,3.00
2019-03-25T06:07:42.833Z,5.43
2019-03-25T06:10:12.372Z,6.30
2019-03-25T06:12:42.470Z,2.50
2019-03-25T06:15:11.962Z,1.50
2019-03-25T06:17:40.710Z,2.27
2019-03-25T06:20:10.078Z,3.40
2019-03-25T06:22:40.292Z,3.37
2019-03-25T06:25:10.066Z,3.30
2019-03-25T06:27:38.839Z,3.87
2019-03-25T06:30:11.525Z,4.67
2019-03-25T06:32:40.311Z,3.50
2019-03-25T06:35:09.405Z,5.10
2019-03-25T06:37:38.178Z,5.70
2019-03-25T06:40:08.420Z,11.50
2019-03-25T06:42:37.095Z,4.90
2019-03-25T06:45:08.616Z,11.37
2019-03-25T06:47:37.973Z,6.83
2019-03-25T06:50:08.409Z,10.20
2019-03-25T06:52:37.302Z,14.87
2019-03-25T06:55:07.853Z,7.20
2019-03-25T06:57:38.652Z,10.83
2019-03-25T07:00:09.355Z,8.17
2019-03-25T07:02:38.109Z,12.37
2019-03-25T07:05:07.553Z,8.90
2019-03-25T07:07:36.340Z,3.53
2019-03-25T07:10:07.698Z,7.97
2019-03-25T07:12:37.778Z,8.30
2019-03-25T07:15:08.105Z,8.57
2019-03-25T07:17:38.175Z,15.73
2019-03-25T07:20:08.777Z,10.23
2019-03-25T07:22:37.535Z,8.90
2019-03-25T07:25:06.945Z,23.67
2019-03-25T07:27:36.947Z,13.10
2019-03-25T07:30:07.439Z,18.67
2019-03-25T07:32:36.191Z,16.33
2019-03-25T07:35:07.093Z,15.43
2019-03-25T07:37:35.979Z,20.73
2019-03-25T07:40:07.926Z,7.33
2019-03-25T07:42:36.788Z,10.53
2019-03-25T07:45:07.561Z,20.53
2019-03-25T07:47:36.350Z,16.03
2019-03-25T07:50:07.341Z,18.60
2019-03-25T07:52:36.125Z,17.00
2019-03-25T07:55:06.051Z,23.33
2019-03-25T07:57:34.831Z,22.07
2019-03-25T08:00:13.554Z,18.03
2019-03-25T08:02:36.157Z,23.30
2019-03-25T08:05:06.310Z,25.33
2019-03-25T08:07:35.262Z,17.17
2019-03-25T08:10:05.193Z,18.73
2019-03-25T08:12:33.949Z,26.60
2019-03-25T08:15:03.725Z,23.93
2019-03-25T08:17:32.595Z,19.87
2019-03-25T08:20:02.774Z,20.63
2019-03-25T08:22:31.494Z,9.30
2019-03-25T08:25:00.370Z,15.73
2019-03-25T08:27:29.204Z,12.23
2019-03-25T08:29:59.279Z,10.73
2019-03-25T08:32:28.020Z,10.97
2019-03-25T08:34:56.746Z,11.87
2019-03-25T08:37:25.579Z,8.33
2019-03-25T08:39:54.400Z,6.30
2019-03-25T08:42:23.297Z,8.40
2019-03-25T08:44:52.106Z,4.83
2019-03-25T08:47:20.847Z,8.07
2019-03-25T08:49:49.579Z,5.13
2019-03-25T08:52:21.118Z,8.20
2019-03-25T08:54:49.889Z,9.50
2019-03-25T08:57:19.667Z,11.93
2019-03-25T08:59:48.503Z,7.87
2019-03-25T09:02:18.475Z,12.37
2019-03-25T09:04:47.197Z,16.80
2019-03-25T09:07:16.023Z,11.30
2019-03-25T09:09:44.905Z,5.20
2019-03-25T09:12:14.845Z,21.00
2019-03-25T09:14:43.738Z,13.30
2019-03-25T09:17:12.525Z,3.67
2019-03-25T09:19:41.330Z,4.80
2019-03-25T09:22:10.226Z,4.20
2019-03-25T09:24:39.161Z,3.47
2019-03-25T09:27:07.942Z,3.57
2019-03-25T09:29:36.807Z,6.33
2019-03-25T09:32:06.364Z,8.07
2019-03-25T09:34:36.686Z,6.30
2019-03-25T09:37:06.277Z,4.40
2019-03-25T09:39:35.069Z,5.13
2019-03-25T09:42:04.065Z,3.90
2019-03-25T09:44:33.038Z,5.67
2019-03-25T09:47:01.903Z,2.60
2019-03-25T09:49:30.962Z,5.67
2019-03-25T09:51:59.772Z,6.10
2019-03-25T09:54:28.562Z,4.23
2019-03-25T09:56:57.346Z,4.67
2019-03-25T09:59:26.185Z,7.67
2019-03-25T10:01:55.003Z,5.70
2019-03-25T10:04:23.973Z,4.30
2019-03-25T10:06:52.745Z,6.90
2019-03-25T10:09:21.542Z,9.40
2019-03-25T10:11:50.398Z,3.40
2019-03-25T10:14:19.198Z,5.80
2019-03-25T10:16:48.017Z,3.37
2019-03-25T10:19:17.585Z,8.17
2019-03-25T10:21:46.422Z,7.23
2019-03-25T10:24:15.318Z,4.00
2019-03-25T10:26:44.124Z,9.93
2019-03-25T10:29:12.906Z,10.67
2019-03-25T10:31:42.478Z,3.80
2019-03-25T10:34:11.411Z,4.70
2019-03-25T10:36:40.208Z,3.83
2019-03-25T10:39:09.177Z,9.30
2019-03-25T10:41:38.549Z,1.93
2019-03-25T10:44:07.493Z,5.47
2019-03-25T10:46:36.220Z,7.33
2019-03-25T10:49:05.133Z,11.80
2019-03-25T10:51:34.773Z,7.40
2019-03-25T10:54:03.655Z,6.67
2019-03-25T10:56:32.395Z,3.53
2019-03-25T10:59:01.227Z,5.47
2019-03-25T11:01:29.980Z,5.93
2019-03-25T11:03:58.989Z,9.13
2019-03-25T11:06:27.804Z,6.53
2019-03-25T11:08:56.747Z,3.90
2019-03-25T11:11:25.593Z,4.10
2019-03-25T11:13:54.384Z,4.77
2019-03-25T11:16:23.247Z,4.03
2019-03-25T11:18:52.065Z,4.90
2019-03-25T11:21:20.876Z,3.73
2019-03-25T11:23:49.657Z,6.63
2019-03-25T11:26:18.495Z,7.87
2019-03-25T11:28:47.362Z,4.57
2019-03-25T11:31:16.302Z,4.27
2019-03-25T11:33:45.101Z,5.23
2019-03-25T11:36:14.059Z,7.23
2019-03-25T11:38:42.768Z,3.27
2019-03-25T11:41:11.512Z,11.07
2019-03-25T11:43:40.300Z,5.77
2019-03-25T11:46:09.230Z,5.10
2019-03-25T11:48:37.987Z,3.03
2019-03-25T11:51:06.780Z,6.40
2019-03-25T11:53:36.249Z,1.10
2019-03-25T11:56:05.316Z,1.27
2019-03-25T11:58:34.086Z,6.10
2019-03-25T12:01:02.836Z,7.90
2019-03-25T12:03:31.683Z,3.00
2019-03-25T12:06:00.586Z,4.03
2019-03-25T12:08:29.431Z,4.07
2019-03-25T12:10:59.015Z,2.50
2019-03-25T12:13:27.831Z,3.47
2019-03-25T12:15:56.549Z,1.60
2019-03-25T12:18:25.358Z,4.00
2019-03-25T12:20:55.041Z,1.13
2019-03-25T12:23:26.481Z,1.30
2019-03-25T12:25:55.071Z,3.13
2019-03-25T12:28:23.930Z,1.57
2019-03-25T12:30:52.765Z,5.33
2019-03-25T12:33:22.473Z,4.27
2019-03-25T12:35:52.001Z,5.20
2019-03-25T12:38:22.345Z,5.70
2019-03-25T12:40:51.176Z,4.17
2019-03-25T12:43:20.013Z,4.70
2019-03-25T12:45:48.879Z,5.90
2019-03-25T12:48:17.633Z,5.33
2019-03-25T12:50:46.553Z,6.37
2019-03-25T12:53:15.496Z,7.30
2019-03-25T12:55:44.326Z,4.87
2019-03-25T12:58:13.375Z,6.63
2019-03-25T13:00:43.398Z,6.07
2019-03-25T13:03:12.270Z,6.07
2019-03-25T13:05:41.138Z,9.23
2019-03-25T13:08:10.081Z,5.10
2019-03-25T13:10:38.958Z,5.10
2019-03-25T13:13:07.804Z,4.40
2019-03-25T13:15:36.630Z,5.30
2019-03-25T13:18:06.367Z,4.40
2019-03-25T13:20:35.155Z,4.40
2019-03-25T13:23:04.107Z,1.17
2019-03-25T13:25:32.932Z,0.97
2019-03-25T13:28:02.360Z,2.10
2019-03-25T13:30:31.192Z,4.10
2019-03-25T13:33:00.019Z,7.30
2019-03-25T13:35:29.433Z,3.90
2019-03-25T13:37:59.049Z,6.90
2019-03-25T13:40:29.282Z,1.32
2019-03-25T13:42:58.123Z,3.93
2019-03-25T13:45:27.112Z,1.10
2019-03-25T13:47:55.887Z,3.43
2019-03-25T13:50:24.751Z,1.60
2019-03-25T13:52:53.563Z,2.43
2019-03-25T13:55:22.323Z,5.80
2019-03-25T13:57:51.222Z,3.43
2019-03-25T14:00:22.893Z,2.60
2019-03-25T14:02:51.748Z,6.80
2019-03-25T14:05:20.505Z,2.73
2019-03-25T14:07:50.666Z,3.27
2019-03-25T14:10:19.793Z,4.30
2019-03-25T14:12:48.874Z,4.40
2019-03-25T14:15:17.830Z,2.90
2019-03-25T14:17:46.692Z,5.40
2019-03-25T14:20:15.788Z,1.70
2019-03-25T14:22:44.571Z,2.20
2019-03-25T14:25:13.364Z,3.67
2019-03-25T14:27:42.349Z,1.80
2019-03-25T14:30:14.857Z,2.33
2019-03-25T14:32:42.158Z,2.00
2019-03-25T14:35:11.099Z,4.70
2019-03-25T14:37:39.973Z,2.70
2019-03-25T14:40:09.306Z,3.83
2019-03-25T14:42:38.206Z,2.67
2019-03-25T14:45:08.711Z,2.83
2019-03-25T14:47:37.624Z,5.90
2019-03-25T14:50:08.289Z,5.80
2019-03-25T14:52:37.151Z,3.00
2019-03-25T14:55:07.066Z,1.90
2019-03-25T14:57:36.013Z,2.87
2019-03-25T15:00:07.815Z,4.80
2019-03-25T15:02:36.635Z,0.90
2019-03-25T15:05:06.922Z,1.07
2019-03-25T15:07:35.693Z,5.13
2019-03-25T15:10:06.632Z,3.63
2019-03-25T15:12:35.874Z,1.43
2019-03-25T15:15:08.130Z,2.00
2019-03-25T15:17:37.256Z,2.37
2019-03-25T15:20:10.101Z,1.03
2019-03-25T15:22:38.701Z,8.63
2019-03-25T15:25:09.040Z,1.93
2019-03-25T15:27:37.919Z,2.70
2019-03-25T15:30:09.887Z,5.83
2019-03-25T15:32:38.717Z,3.60
2019-03-25T15:35:08.468Z,4.20
2019-03-25T15:37:38.684Z,1.53
2019-03-25T15:40:10.592Z,3.50
2019-03-25T15:42:39.474Z,1.37
2019-03-25T15:45:09.015Z,5.83
2019-03-25T15:47:38.188Z,1.20
2019-03-25T15:50:08.868Z,3.00
2019-03-25T15:52:38.643Z,2.20
2019-03-25T15:55:08.052Z,4.67
2019-03-25T15:57:39.426Z,4.83
2019-03-25T16:00:10.635Z,9.80
2019-03-25T16:02:39.736Z,1.70
2019-03-25T16:05:08.950Z,4.40
2019-03-25T16:07:37.776Z,3.20
2019-03-25T16:10:07.289Z,5.10
2019-03-25T16:12:36.102Z,3.73
2019-03-25T16:15:06.577Z,2.63
2019-03-25T16:17:35.610Z,1.37
2019-03-25T16:20:07.278Z,3.00
2019-03-25T16:22:36.193Z,2.40
2019-03-25T16:25:07.840Z,3.37
2019-03-25T16:27:36.683Z,1.97
2019-03-25T16:30:08.102Z,2.17
2019-03-25T16:32:36.957Z,6.03
2019-03-25T16:35:07.412Z,2.70
2019-03-25T16:37:36.309Z,1.97
2019-03-25T16:40:07.417Z,3.37
2019-03-25T16:42:36.240Z,4.23
2019-03-25T16:45:06.599Z,4.97
2019-03-25T16:47:35.402Z,1.77
2019-03-25T16:50:06.592Z,2.93
2019-03-25T16:52:35.463Z,10.43
2019-03-25T16:55:06.151Z,4.53
2019-03-25T16:57:35.062Z,11.87
2019-03-25T17:00:05.617Z,4.17
2019-03-25T17:02:35.808Z,4.67
2019-03-25T17:05:05.643Z,5.37
2019-03-25T17:07:34.551Z,4.50
2019-03-25T17:10:04.051Z,8.93
2019-03-25T17:12:32.881Z,7.30
2019-03-25T17:15:01.863Z,3.30
2019-03-25T17:17:30.690Z,6.90
2019-03-25T17:19:59.584Z,3.20
2019-03-25T17:22:28.365Z,4.67
2019-03-25T17:24:57.153Z,2.87
2019-03-25T17:27:26.252Z,3.73
2019-03-25T17:29:56.474Z,4.37
2019-03-25T17:32:25.365Z,7.70
2019-03-25T17:34:55.428Z,4.70
2019-03-25T17:37:24.554Z,2.60
2019-03-25T17:39:53.479Z,4.73
2019-03-25T17:42:22.402Z,4.90
2019-03-25T17:44:51.329Z,8.17
2019-03-25T17:47:20.161Z,10.90
2019-03-25T17:49:50.323Z,8.00
2019-03-25T17:52:19.203Z,8.93
2019-03-25T17:54:48.002Z,9.03
2019-03-25T17:57:16.732Z,7.87
2019-03-25T17:59:45.632Z,7.10
2019-03-25T18:02:14.526Z,9.30
2019-03-25T18:04:43.441Z,5.40
2019-03-25T18:07:12.956Z,7.50
2019-03-25T18:09:42.298Z,13.23
2019-03-25T18:12:12.721Z,9.50
2019-03-25T18:14:44.370Z,6.00
2019-03-25T18:17:14.503Z,6.80
2019-03-25T18:19:43.278Z,12.47
2019-03-25T18:22:12.066Z,7.53
2019-03-25T18:24:42.958Z,6.77
2019-03-25T18:27:11.918Z,10.70
2019-03-25T18:29:40.742Z,14.50
2019-03-25T18:32:11.301Z,15.57
2019-03-25T18:34:41.022Z,9.13
2019-03-25T18:37:09.855Z,7.27
2019-03-25T18:39:38.690Z,8.60
2019-03-25T18:42:07.475Z,7.90
2019-03-25T18:44:36.296Z,6.27
2019-03-25T18:47:05.167Z,7.53
2019-03-25T18:49:34.817Z,5.77
2019-03-25T18:52:03.682Z,4.97
2019-03-25T18:54:33.505Z,9.33
2019-03-25T18:57:02.327Z,9.07
2019-03-25T18:59:31.142Z,5.93
2019-03-25T19:02:01.511Z,10.57
2019-03-25T19:04:30.452Z,9.00
2019-03-25T19:07:00.570Z,6.87
2019-03-25T19:09:29.768Z,7.50
2019-03-25T19:11:58.674Z,15.67
2019-03-25T19:14:27.570Z,11.70
2019-03-25T19:16:56.485Z,5.87
2019-03-25T19:19:25.235Z,5.97
2019-03-25T19:21:56.874Z,7.53
2019-03-25T19:24:26.165Z,4.57
2019-03-25T19:26:56.308Z,5.70
2019-03-25T19:29:25.316Z,4.80
2019-03-25T19:32:05.905Z,5.63
2019-03-25T19:34:24.781Z,8.10
2019-03-25T19:36:56.383Z,21.13
2019-03-25T19:39:25.271Z,6.60
2019-03-25T19:41:54.675Z,10.70
2019-03-25T19:44:24.068Z,7.30
2019-03-25T19:46:52.859Z,10.83
2019-03-25T19:49:21.750Z,3.10
2019-03-25T19:51:50.688Z,8.50
2019-03-25T19:54:19.785Z,4.10
2019-03-25T19:56:54.059Z,10.20
2019-03-25T19:59:22.915Z,3.97
2019-03-25T20:01:52.357Z,7.00
2019-03-25T20:04:23.044Z,10.90
2019-03-25T20:06:52.882Z,8.43
2019-03-25T20:09:21.768Z,5.83
2019-03-25T20:11:50.606Z,14.33
2019-03-25T20:14:19.481Z,7.60
2019-03-25T20:16:48.463Z,8.43
2019-03-25T20:19:17.420Z,14.40
2019-03-25T20:21:46.347Z,7.73
2019-03-25T20:24:15.167Z,10.10
2019-03-25T20:26:44.084Z,5.73
2019-03-25T20:29:13.157Z,4.97
2019-03-25T20:31:44.604Z,4.33
2019-03-25T20:34:14.066Z,8.20
2019-03-25T20:36:43.162Z,11.80
2019-03-25T20:39:12.993Z,11.43
2019-03-25T20:41:43.941Z,8.93
2019-03-25T20:44:13.074Z,6.80
2019-03-25T20:46:41.958Z,7.30
2019-03-25T20:49:10.968Z,16.67
2019-03-25T20:51:39.889Z,8.40
2019-03-25T20:54:09.058Z,7.73
2019-03-25T20:56:38.411Z,8.87
2019-03-25T20:59:07.463Z,3.73
2019-03-25T21:01:37.303Z,10.40
2019-03-25T21:04:06.217Z,17.37
2019-03-25T21:06:35.040Z,8.07
2019-03-25T21:09:05.298Z,11.57
2019-03-25T21:11:34.229Z,15.13
2019-03-25T21:14:03.362Z,11.70
2019-03-25T21:16:33.028Z,15.83
2019-03-25T21:19:02.472Z,3.07
2019-03-25T21:21:31.336Z,6.30
2019-03-25T21:24:00.184Z,5.90
2019-03-25T21:26:29.004Z,11.57
2019-03-25T21:28:57.878Z,10.20
2019-03-25T21:31:28.272Z,13.70
2019-03-25T21:33:57.245Z,8.20
2019-03-25T21:36:27.510Z,4.90
2019-03-25T21:38:56.369Z,20.50
2019-03-25T21:41:25.294Z,5.37
2019-03-25T21:43:54.158Z,11.87
2019-03-25T21:46:22.991Z,10.40
2019-03-25T21:48:51.877Z,6.57
2019-03-25T21:51:20.622Z,16.63
2019-03-25T21:53:49.541Z,8.20
2019-03-25T21:56:19.164Z,14.00
2019-03-25T21:58:48.022Z,18.37
2019-03-25T22:01:16.984Z,13.93
2019-03-25T22:03:45.963Z,13.63
2019-03-25T22:06:15.000Z,17.10
2019-03-25T22:08:43.918Z,8.33
2019-03-25T22:11:12.749Z,7.07
2019-03-25T22:13:41.610Z,15.87
2019-03-25T22:16:10.449Z,7.13
2019-03-25T22:18:39.277Z,12.60
2019-03-25T22:21:08.280Z,8.00
2019-03-25T22:23:37.110Z,7.37
2019-03-25T22:26:05.954Z,17.57
2019-03-25T22:28:34.715Z,8.83
2019-03-25T22:31:04.329Z,11.40
2019-03-25T22:33:33.225Z,20.50
2019-03-25T22:36:02.308Z,13.37
2019-03-25T22:38:31.269Z,14.90
2019-03-25T22:41:00.070Z,12.47
2019-03-25T22:43:28.901Z,15.80
2019-03-25T22:45:57.636Z,11.97
2019-03-25T22:48:26.537Z,7.97
2019-03-25T22:50:55.855Z,19.50
2019-03-25T22:53:25.465Z,22.03
2019-03-25T22:55:54.248Z,13.73
2019-03-25T22:58:23.088Z,14.47
2019-03-25T23:00:52.143Z,8.03
2019-03-25T23:03:20.956Z,7.60
2019-03-25T23:05:49.832Z,10.50
2019-03-25T23:08:18.739Z,12.57
2019-03-25T23:10:47.557Z,14.53
2019-03-25T23:13:16.424Z,11.83
2019-03-25T23:15:45.188Z,11.50
2019-03-25T23:18:13.978Z,10.13
2019-03-25T23:20:43.634Z,19.73
2019-03-25T23:23:14.202Z,10.70
2019-03-25T23:25:43.262Z,14.27
2019-03-25T23:28:12.790Z,18.37
2019-03-25T23:30:41.738Z,5.50
2019-03-25T23:33:10.639Z,12.50
2019-03-25T23:35:39.467Z,13.80
2019-03-25T23:38:08.240Z,29.37
2019-03-25T23:40:37.079Z,11.90
2019-03-25T23:43:06.082Z,11.23
2019-03-25T23:45:34.923Z,17.07
2019-03-25T23:48:03.776Z,8.33
2019-03-25T23:50:32.573Z,15.70
2019-03-25T23:53:01.328Z,18.63
2019-03-25T23:55:30.068Z,12.00
2019-03-25T23:57:59.441Z,9.20
